Time,TemperatureF,DewpointF,PressureIn,WindDirection,WindDirectionDegrees,WindSpeedMPH,WindSpeedGustMPH,Humidity,HourlyPrecipIn,Conditions,Clouds,dailyrainin,SoftwareType,DateUTC
2013-06-08 00:10:00,60.4,57.0,29.84,WNW,297,0.0,2.0,88,0.00,,,0.00,weatherlink.com 1.10,2013-06-08 07:10:00,
2013-06-08 00:25:00,60.4,57.0,29.83,WNW,284,0.0,2.0,89,0.00,,,0.00,weatherlink.com 1.10,2013-06-08 07:25:00,
2013-06-08 00:40:00,60.6,57.0,29.83,WNW,295,1.0,1.0,88,0.00,,,0.00,weatherlink.com 1.10,2013-06-08 07:40:00,
2013-06-08 00:55:00,60.3,57.0,29.83,North,356,0.0,1.0,89,0.00,,,0.00,weatherlink.com 1.10,2013-06-08 07:55:00,
2013-06-08 01:11:00,60.6,57.0,29.83,WNW,292,0.0,1.0,89,0.00,,,0.00,weatherlink.com 1.10,2013-06-08 08:11:00,
2013-06-08 01:26:00,60.7,57.0,29.83,West,271,0.0,1.0,88,0.00,,,0.00,weatherlink.com 1.10,2013-06-08 08:26:00,
2013-06-08 01:41:00,60.5,57.0,29.82,WSW,252,1.0,2.0,88,0.00,,,0.00,weatherlink.com 1.10,2013-06-08 08:41:00,
2013-06-08 01:56:00,60.4,57.0,29.82,WSW,252,0.0,0.0,89,0.00,,,0.00,weatherlink.com 1.10,2013-06-08 08:56:00,
2013-06-08 02:11:00,60.5,57.0,29.81,West,273,0.0,1.0,89,0.00,,,0.00,weatherlink.com 1.10,2013-06-08 09:11:00,
2013-06-08 02:26:00,60.6,57.0,29.81,WSW,245,0.0,3.0,89,0.00,,,0.00,weatherlink.com 1.10,2013-06-08 09:26:00,
2013-06-08 02:41:00,60.7,57.0,29.81,SW,226,0.0,1.0,88,0.00,,,0.00,weatherlink.com 1.10,2013-06-08 09:41:00,
2013-06-08 02:56:00,60.7,58.0,29.81,SW,227,0.0,1.0,89,0.00,,,0.00,weatherlink.com 1.10,2013-06-08 09:56:00,
2013-06-08 03:11:00,60.7,57.0,29.81,SSW,213,0.0,1.0,88,0.00,,,0.00,weatherlink.com 1.10,2013-06-08 10:11:00,
2013-06-08 03:26:00,60.6,57.0,29.80,SW,234,0.0,1.0,88,0.00,,,0.00,weatherlink.com 1.10,2013-06-08 10:26:00,
2013-06-08 03:41:00,60.5,57.0,29.80,WSW,251,0.0,2.0,89,0.00,,,0.00,weatherlink.com 1.10,2013-06-08 10:41:00,
2013-06-08 03:56:00,60.5,57.0,29.80,South,183,0.0,0.0,89,0.00,,,0.00,weatherlink.com 1.10,2013-06-08 10:56:00,
2013-06-08 04:11:00,60.4,57.0,29.79,SE,135,0.0,1.0,89,0.00,,,0.00,weatherlink.com 1.10,2013-06-08 11:11:00,
2013-06-08 04:26:00,60.4,57.0,29.80,SSE,163,0.0,0.0,89,0.00,,,0.00,weatherlink.com 1.10,2013-06-08 11:26:00,
2013-06-08 05:41:00,60.4,57.0,29.80,WSW,255,1.0,2.0,89,0.00,,,0.00,weatherlink.com 1.10,2013-06-08 12:41:00,
2013-06-08 06:11:00,60.4,57.0,29.81,WSW,252,3.0,3.0,89,0.00,,,0.00,weatherlink.com 1.10,2013-06-08 13:11:00,
2013-06-08 06:26:00,60.4,58.0,29.81,WSW,251,0.0,3.0,90,0.00,,,0.00,weatherlink.com 1.10,2013-06-08 13:26:00,
2013-06-08 06:41:00,60.5,58.0,29.82,WSW,250,0.0,1.0,90,0.00,,,0.00,weatherlink.com 1.10,2013-06-08 13:41:00,
2013-06-08 06:56:00,60.7,58.0,29.82,WSW,237,0.0,1.0,89,0.00,,,0.00,weatherlink.com 1.10,2013-06-08 13:56:00,
2013-06-08 07:11:00,60.8,58.0,29.82,West,273,1.0,2.0,89,0.00,,,0.00,weatherlink.com 1.10,2013-06-08 14:11:00,
2013-06-08 07:26:00,60.8,58.0,29.82,WSW,243,0.0,2.0,89,0.00,,,0.00,weatherlink.com 1.10,2013-06-08 14:26:00,
2013-06-08 07:41:00,61.1,58.0,29.83,WSW,252,0.0,2.0,88,0.00,,,0.00,weatherlink.com 1.10,2013-06-08 14:41:00,
2013-06-08 07:56:00,61.5,58.0,29.84,WSW,248,0.0,2.0,87,0.00,,,0.00,weatherlink.com 1.10,2013-06-08 14:56:00,
2013-06-08 08:26:00,62.0,58.0,29.84,West,259,0.0,2.0,86,0.00,,,0.00,weatherlink.com 1.10,2013-06-08 15:26:00,
2013-06-08 08:41:00,62.4,58.0,29.84,WSW,257,3.0,3.0,85,0.00,,,0.00,weatherlink.com 1.10,2013-06-08 15:41:00,
2013-06-08 08:56:00,62.8,58.0,29.84,NE,47,0.0,1.0,85,0.00,,,0.00,weatherlink.com 1.10,2013-06-08 15:56:00,
2013-06-08 09:11:00,63.0,58.0,29.84,East,82,1.0,3.0,84,0.00,,,0.00,weatherlink.com 1.10,2013-06-08 16:11:00,
2013-06-08 09:26:00,64.1,59.0,29.84,East,91,0.0,1.0,83,0.00,,,0.00,weatherlink.com 1.10,2013-06-08 16:26:00,
2013-06-08 09:41:00,64.7,59.0,29.84,WSW,246,1.0,2.0,82,0.00,,,0.00,weatherlink.com 1.10,2013-06-08 16:41:00,
2013-06-08 09:56:00,65.4,59.0,29.84,West,280,1.0,3.0,79,0.00,,,0.00,weatherlink.com 1.10,2013-06-08 16:56:00,
2013-06-08 10:11:00,66.4,60.0,29.85,West,278,0.0,4.0,79,0.00,,,0.00,weatherlink.com 1.10,2013-06-08 17:11:00,
2013-06-08 10:27:00,68.8,60.0,29.84,WSW,255,0.0,5.0,73,0.00,,,0.00,weatherlink.com 1.10,2013-06-08 17:27:00,
2013-06-08 10:41:00,68.2,60.0,29.85,NNE,24,0.0,7.0,75,0.00,,,0.00,weatherlink.com 1.10,2013-06-08 17:41:00,
2013-06-08 10:57:00,67.4,60.0,29.86,West,261,4.0,8.0,77,0.00,,,0.00,weatherlink.com 1.10,2013-06-08 17:57:00,
2013-06-08 11:12:00,67.6,60.0,29.86,WSW,246,1.0,8.0,77,0.00,,,0.00,weatherlink.com 1.10,2013-06-08 18:12:00,
2013-06-08 11:27:00,67.7,60.0,29.86,NW,317,1.0,8.0,75,0.00,,,0.00,weatherlink.com 1.10,2013-06-08 18:27:00,
2013-06-08 11:42:00,69.1,60.0,29.87,SW,219,2.0,6.0,72,0.00,,,0.00,weatherlink.com 1.10,2013-06-08 18:42:00,
2013-06-08 11:57:00,68.5,59.0,29.87,SW,221,1.0,10.0,72,0.00,,,0.00,weatherlink.com 1.10,2013-06-08 18:57:00,
2013-06-08 12:12:00,67.9,59.0,29.87,SW,220,3.0,7.0,74,0.00,,,0.00,weatherlink.com 1.10,2013-06-08 19:12:00,
2013-06-08 12:27:00,67.7,60.0,29.87,West,272,2.0,11.0,75,0.00,,,0.00,weatherlink.com 1.10,2013-06-08 19:27:00,
2013-06-08 12:42:00,68.5,59.0,29.87,WSW,240,5.0,12.0,72,0.00,,,0.00,weatherlink.com 1.10,2013-06-08 19:42:00,
2013-06-08 12:57:00,67.7,59.0,29.88,SSW,209,8.0,8.0,74,0.00,,,0.00,weatherlink.com 1.10,2013-06-08 19:57:00,
2013-06-08 13:12:00,68.1,60.0,29.88,SW,223,1.0,7.0,75,0.00,,,0.00,weatherlink.com 1.10,2013-06-08 20:12:00,
2013-06-08 13:27:00,69.4,60.0,29.87,WSW,243,2.0,7.0,72,0.00,,,0.00,weatherlink.com 1.10,2013-06-08 20:27:00,
2013-06-08 13:42:00,69.6,60.0,29.87,SW,227,3.0,8.0,71,0.00,,,0.00,weatherlink.com 1.10,2013-06-08 20:42:00,
2013-06-08 13:57:00,69.0,59.0,29.87,WNW,286,2.0,10.0,71,0.00,,,0.00,weatherlink.com 1.10,2013-06-08 20:57:00,
2013-06-08 14:12:00,68.5,60.0,29.87,SSW,193,1.0,8.0,73,0.00,,,0.00,weatherlink.com 1.10,2013-06-08 21:12:00,
2013-06-08 14:27:00,67.9,59.0,29.87,WSW,240,1.0,7.0,74,0.00,,,0.00,weatherlink.com 1.10,2013-06-08 21:27:00,
2013-06-08 14:42:00,67.6,59.0,29.87,WSW,238,1.0,8.0,74,0.00,,,0.00,weatherlink.com 1.10,2013-06-08 21:42:00,
2013-06-08 14:57:00,66.6,59.0,29.87,West,261,2.0,10.0,76,0.00,,,0.00,weatherlink.com 1.10,2013-06-08 21:57:00,
2013-06-08 15:12:00,65.7,58.0,29.87,SE,135,3.0,10.0,77,0.00,,,0.00,weatherlink.com 1.10,2013-06-08 22:12:00,
2013-06-08 15:27:00,64.8,58.0,29.87,SSE,168,2.0,8.0,79,0.00,,,0.00,weatherlink.com 1.10,2013-06-08 22:27:00,
2013-06-08 15:42:00,64.9,58.0,29.87,West,262,4.0,8.0,79,0.00,,,0.00,weatherlink.com 1.10,2013-06-08 22:42:00,
2013-06-08 15:57:00,64.3,58.0,29.87,West,271,1.0,9.0,81,0.00,,,0.00,weatherlink.com 1.10,2013-06-08 22:57:00,
2013-06-08 16:12:00,63.8,58.0,29.87,WSW,245,2.0,6.0,81,0.00,,,0.00,weatherlink.com 1.10,2013-06-08 23:12:00,
2013-06-08 16:27:00,64.8,59.0,29.87,WSW,240,3.0,6.0,80,0.00,,,0.00,weatherlink.com 1.10,2013-06-08 23:27:00,
2013-06-08 16:42:00,65.7,59.0,29.87,West,273,2.0,6.0,78,0.00,,,0.00,weatherlink.com 1.10,2013-06-08 23:42:00,
2013-06-08 16:57:00,65.9,59.0,29.87,WNW,295,3.0,5.0,78,0.00,,,0.00,weatherlink.com 1.10,2013-06-08 23:57:00,
2013-06-08 17:12:00,66.2,58.0,29.86,SW,233,1.0,10.0,76,0.00,,,0.00,weatherlink.com 1.10,2013-06-09 00:12:00,
2013-06-08 17:27:00,65.4,58.0,29.86,WSW,250,1.0,5.0,78,0.00,,,0.00,weatherlink.com 1.10,2013-06-09 00:27:00,
2013-06-08 17:42:00,64.4,58.0,29.86,WSW,238,1.0,6.0,80,0.00,,,0.00,weatherlink.com 1.10,2013-06-09 00:42:00,
2013-06-08 17:57:00,64.2,58.0,29.86,WSW,243,0.0,5.0,80,0.00,,,0.00,weatherlink.com 1.10,2013-06-09 00:57:00,
2013-06-08 18:12:00,64.2,58.0,29.86,West,278,1.0,4.0,80,0.00,,,0.00,weatherlink.com 1.10,2013-06-09 01:12:00,
2013-06-08 18:27:00,63.7,58.0,29.87,SSW,209,1.0,5.0,82,0.00,,,0.00,weatherlink.com 1.10,2013-06-09 01:27:00,
2013-06-08 18:42:00,63.1,58.0,29.87,WSW,237,3.0,5.0,83,0.00,,,0.00,weatherlink.com 1.10,2013-06-09 01:42:00,
2013-06-08 18:57:00,62.8,58.0,29.87,SW,227,0.0,3.0,84,0.00,,,0.00,weatherlink.com 1.10,2013-06-09 01:57:00,
2013-06-08 19:12:00,62.7,58.0,29.87,SSW,196,0.0,5.0,84,0.00,,,0.00,weatherlink.com 1.10,2013-06-09 02:12:00,
2013-06-08 19:27:00,62.2,58.0,29.88,NE,48,0.0,3.0,85,0.00,,,0.00,weatherlink.com 1.10,2013-06-09 02:27:00,
2013-06-08 19:42:00,62.1,58.0,29.88,SW,228,0.0,2.0,85,0.00,,,0.00,weatherlink.com 1.10,2013-06-09 02:42:00,
2013-06-08 19:57:00,61.9,58.0,29.88,West,260,1.0,3.0,86,0.00,,,0.00,weatherlink.com 1.10,2013-06-09 02:57:00,
2013-06-08 20:12:00,61.6,57.0,29.88,WSW,244,1.0,2.0,86,0.00,,,0.00,weatherlink.com 1.10,2013-06-09 03:12:00,
2013-06-08 20:27:00,61.6,57.0,29.89,ESE,112,0.0,1.0,86,0.00,,,0.00,weatherlink.com 1.10,2013-06-09 03:27:00,
2013-06-08 20:42:00,61.6,57.0,29.89,WNW,288,0.0,3.0,86,0.00,,,0.00,weatherlink.com 1.10,2013-06-09 03:42:00,
2013-06-08 20:57:00,61.4,58.0,29.89,SW,223,1.0,3.0,87,0.00,,,0.00,weatherlink.com 1.10,2013-06-09 03:57:00,
2013-06-08 21:12:00,61.7,58.0,29.90,WSW,250,0.0,1.0,87,0.00,,,0.00,weatherlink.com 1.10,2013-06-09 04:12:00,
2013-06-08 21:27:00,61.6,58.0,29.90,West,261,0.0,2.0,87,0.00,,,0.00,weatherlink.com 1.10,2013-06-09 04:27:00,
2013-06-08 21:42:00,61.3,57.0,29.91,NW,317,0.0,3.0,87,0.00,,,0.00,weatherlink.com 1.10,2013-06-09 04:42:00,
2013-06-08 21:57:00,61.4,58.0,29.91,WNW,297,0.0,2.0,88,0.00,,,0.00,weatherlink.com 1.10,2013-06-09 04:57:00,
2013-06-08 22:12:00,61.4,58.0,29.91,West,271,0.0,1.0,87,0.00,,,0.00,weatherlink.com 1.10,2013-06-09 05:12:00,
2013-06-08 22:27:00,61.3,58.0,29.91,NW,311,0.0,1.0,88,0.00,,,0.00,weatherlink.com 1.10,2013-06-09 05:27:00,
2013-06-08 22:42:00,61.2,58.0,29.91,West,264,0.0,1.0,88,0.00,,,0.00,weatherlink.com 1.10,2013-06-09 05:42:00,
2013-06-08 22:57:00,61.2,58.0,29.91,West,265,0.0,1.0,88,0.00,,,0.00,weatherlink.com 1.10,2013-06-09 05:57:00,
2013-06-08 23:12:00,61.2,58.0,29.91,West,272,0.0,2.0,88,0.00,,,0.00,weatherlink.com 1.10,2013-06-09 06:12:00,
2013-06-08 23:27:00,61.1,58.0,29.91,NNE,20,0.0,1.0,88,0.00,,,0.00,weatherlink.com 1.10,2013-06-09 06:27:00,
2013-06-08 23:42:00,61.1,58.0,29.91,NW,314,0.0,2.0,88,0.00,,,0.00,weatherlink.com 1.10,2013-06-09 06:42:00,
2013-06-08 23:57:00,61.1,58.0,29.91,West,273,0.0,2.0,88,0.00,,,0.00,weatherlink.com 1.10,2013-06-09 06:57:00,